Time;durP1;ratioP1;P1;durP2;ratioP2;P2;SDS_P1;SDS_P2;PMS_P1;PMS_P2;Temp;Humidity;BMP_temperature;BMP_pressure;BME280_temperature;BME280_humidity;BME280_pressure;Samples;Min_cycle;Max_cycle;Signal;HPM_P1;HPM_P2
2021/01/31 00:02:18;;;;;;;;;;;-2.10;99.90;;;;;;5120914;27;19908;-85
2021/01/31 00:04:46;;;;;;;;;;;-2.10;99.90;;;;;;5139079;27;19907;-84
2021/01/31 00:07:13;;;;;;;;;;;-2.10;99.90;;;;;;5139341;27;20338;-84
2021/01/31 00:09:40;;;;;;;;;;;-2.10;99.90;;;;;;5120761;27;20049;-83
2021/01/31 00:12:21;;;;;;;;;;;-2.20;99.90;;;;;;5138805;27;19915;-84
2021/01/31 00:14:49;;;;;;;;;;;-2.20;99.90;;;;;;5120483;27;19908;-85
2021/01/31 00:17:34;;;;;;;;;;;-2.20;99.90;;;;;;5137211;27;19914;-84
2021/01/31 00:20:00;;;;;;;;;;;-2.30;99.90;;;;;;5120105;27;19918;-85
2021/01/31 00:22:26;;;;;;;;;;;-2.30;99.90;;;;;;5138788;27;19998;-85
2021/01/31 00:24:57;;;;;;;;;;;-2.30;99.90;;;;;;5120377;27;19907;-85
2021/01/31 00:27:25;;;;;;;;;;;-2.30;99.90;;;;;;5135662;27;20386;-85
2021/01/31 00:29:52;;;;;;;;;;;-2.30;99.90;;;;;;5138602;27;19908;-84
2021/01/31 00:32:40;;;;;;;;;;;-2.40;99.90;;;;;;5136780;27;19918;-84
2021/01/31 00:35:06;;;;;;;;;;;-2.40;99.90;;;;;;5135884;27;19927;-84
2021/01/31 00:37:32;;;;;;;;;;;-2.40;99.90;;;;;;5119914;27;19912;-84
2021/01/31 00:39:58;;;;;;;;;;;-2.50;99.90;;;;;;5114268;27;20008;-84
2021/01/31 00:42:23;;;;;;;;;;;-2.50;99.90;;;;;;5132648;27;19932;-84
2021/01/31 00:44:51;;;;;;;;;;;-2.60;99.90;;;;;;5114542;27;20351;-85
2021/01/31 00:47:17;;;;;;;;;;;-2.70;99.90;;;;;;5137998;27;19908;-83
2021/01/31 00:49:46;;;;;;;;;;;-2.70;99.90;;;;;;5141074;27;19918;-82
2021/01/31 00:52:12;;;;;;;;;;;-2.70;99.90;;;;;;5125395;27;20024;-83
2021/01/31 00:54:40;;;;;;;;;;;-2.70;99.90;;;;;;5120836;27;20368;-84
2021/01/31 00:57:06;;;;;;;;;;;-2.70;99.90;;;;;;5121115;27;19912;-83
2021/01/31 00:59:34;;;;;;;;;;;-2.70;99.90;;;;;;5140432;27;19911;-84
2021/01/31 01:02:04;;;;;;;;;;;-2.70;99.90;;;;;;5124918;27;20380;-84
2021/01/31 01:04:30;;;;;;;;;;;-2.80;99.90;;;;;;5120469;27;19919;-84
2021/01/31 01:06:57;;;;;;;;;;;-2.80;99.90;;;;;;5138558;27;19908;-84
2021/01/31 01:09:25;;;;;;;;;;;-2.80;99.90;;;;;;5138192;27;19926;-85
2021/01/31 01:11:53;;;;;;;;;;;-2.80;99.90;;;;;;5137645;27;20481;-85
2021/01/31 01:14:19;;;;;;;;;;;-2.80;99.90;;;;;;5115590;27;19919;-84
2021/01/31 01:16:44;;;;;;;;;;;-2.80;99.90;;;;;;5137103;27;20264;-83
2021/01/31 01:19:10;;;;;;;;;;;-2.80;99.90;;;;;;5119665;27;19915;-84
2021/01/31 01:21:38;;;;;;;;;;;-2.80;99.90;;;;;;5119654;27;19933;-84
2021/01/31 01:24:04;;;;;;;;;;;-2.80;99.90;;;;;;5118971;27;19914;-85
2021/01/31 01:26:32;;;;;;;;;;;-2.80;99.90;;;;;;5118877;27;19954;-85
2021/01/31 01:29:01;;;;;;;;;;;-2.80;99.90;;;;;;5119045;27;19919;-85
2021/01/31 01:31:27;;;;;;;;;;;-2.80;99.90;;;;;;5113891;27;20001;-84
2021/01/31 01:33:52;;;;;;;;;;;-2.80;99.90;;;;;;5137169;27;20030;-83
2021/01/31 01:36:20;;;;;;;;;;;-2.90;99.90;;;;;;5136607;27;19994;-84
2021/01/31 01:38:46;;;;;;;;;;;-2.80;99.90;;;;;;5132443;27;19908;-85
2021/01/31 01:41:33;;;;;;;;;;;-2.90;99.90;;;;;;5118470;27;19938;-84
2021/01/31 01:44:00;;;;;;;;;;;-2.90;99.90;;;;;;5137247;27;19908;-84
2021/01/31 01:46:28;;;;;;;;;;;-2.80;99.90;;;;;;5131387;27;19998;-85
2021/01/31 01:49:04;;;;;;;;;;;-2.80;99.90;;;;;;5137671;27;20271;-84
2021/01/31 01:51:31;;;;;;;;;;;-2.80;99.90;;;;;;5137568;27;19917;-83
2021/01/31 01:53:58;;;;;;;;;;;-2.80;99.90;;;;;;5136831;27;20383;-83
2021/01/31 01:56:27;;;;;;;;;;;-2.80;99.90;;;;;;5132115;27;19908;-83
2021/01/31 01:58:54;;;;;;;;;;;-2.80;99.90;;;;;;5137029;27;19908;-82
2021/01/31 02:01:26;;;;;;;;;;;-2.80;99.90;;;;;;5131818;27;19907;-84
2021/01/31 02:03:57;;;;;;;;;;;-2.80;99.90;;;;;;5114419;27;20027;-83
2021/01/31 02:06:24;;;;;;;;;;;-2.90;99.90;;;;;;5113978;27;20339;-84
2021/01/31 02:08:50;;;;;;;;;;;-2.80;99.90;;;;;;5131327;27;19931;-84
2021/01/31 02:11:20;;;;;;;;;;;-2.90;99.90;;;;;;5136511;27;19914;-84
2021/01/31 02:13:47;;;;;;;;;;;-2.90;99.90;;;;;;5118258;27;20428;-84
2021/01/31 02:16:27;;;;;;;;;;;-2.90;99.90;;;;;;5118399;27;19915;-83
2021/01/31 02:19:02;;;;;;;;;;;-2.90;99.90;;;;;;5113021;27;20017;-84
2021/01/31 02:21:53;;;;;;;;;;;-2.90;99.90;;;;;;5118228;27;19908;-84
2021/01/31 02:24:37;;;;;;;;;;;-3.00;99.90;;;;;;5136734;27;19998;-84
2021/01/31 02:27:14;;;;;;;;;;;-3.00;99.90;;;;;;5118326;28;19908;-83
2021/01/31 02:30:01;;;;;;;;;;;-3.00;99.90;;;;;;5135224;27;20010;-84
2021/01/31 02:32:33;;;;;;;;;;;-3.00;99.90;;;;;;5136970;27;19967;-85
2021/01/31 02:35:02;;;;;;;;;;;-3.00;99.90;;;;;;5136229;27;19958;-84
2021/01/31 02:37:38;;;;;;;;;;;-3.00;99.90;;;;;;5117758;27;19908;-84
2021/01/31 02:40:12;;;;;;;;;;;-3.00;99.90;;;;;;5113041;27;19908;-84
2021/01/31 02:42:39;;;;;;;;;;;-3.00;99.90;;;;;;5136589;27;19908;-84
2021/01/31 02:45:08;;;;;;;;;;;-3.10;99.90;;;;;;5112579;27;19930;-83
2021/01/31 02:47:47;;;;;;;;;;;-3.10;99.90;;;;;;5117716;27;19998;-84
2021/01/31 02:50:18;;;;;;;;;;;-3.10;99.90;;;;;;5135804;27;20428;-83
2021/01/31 02:53:00;;;;;;;;;;;-3.10;99.90;;;;;;5135749;27;19919;-83
2021/01/31 02:55:41;;;;;;;;;;;-3.10;99.90;;;;;;5117375;27;19907;-83
2021/01/31 02:58:16;;;;;;;;;;;-3.10;99.90;;;;;;5117656;28;19907;-83
2021/01/31 03:00:46;;;;;;;;;;;-3.10;99.90;;;;;;5117684;28;19930;-83
2021/01/31 03:03:22;;;;;;;;;;;-3.10;99.90;;;;;;5117035;28;19908;-82
2021/01/31 03:05:51;;;;;;;;;;;-3.20;99.90;;;;;;5131170;28;19907;-83
2021/01/31 03:08:19;;;;;;;;;;;-3.20;99.90;;;;;;5117089;28;20009;-83
2021/01/31 03:10:48;;;;;;;;;;;-3.20;99.90;;;;;;5117455;28;19974;-83
2021/01/31 03:13:19;;;;;;;;;;;-3.30;99.90;;;;;;5116846;28;20291;-83
2021/01/31 03:16:10;;;;;;;;;;;-3.20;99.90;;;;;;5117247;28;20338;-84
2021/01/31 03:18:41;;;;;;;;;;;-3.30;99.90;;;;;;5103371;28;19908;-84
2021/01/31 03:21:13;;;;;;;;;;;-3.30;99.90;;;;;;5135682;28;19919;-84
2021/01/31 03:23:43;;;;;;;;;;;-3.30;99.90;;;;;;5132676;28;19911;-84
2021/01/31 03:26:14;;;;;;;;;;;-3.30;99.90;;;;;;5113138;28;19916;-83
2021/01/31 03:28:39;;;;;;;;;;;-3.30;99.90;;;;;;5117435;28;19918;-84
2021/01/31 03:31:07;;;;;;;;;;;-3.30;99.90;;;;;;5130915;28;19911;-83
2021/01/31 03:33:38;;;;;;;;;;;-3.20;99.90;;;;;;5112035;28;19915;-83
2021/01/31 03:36:05;;;;;;;;;;;-3.20;99.90;;;;;;5117171;28;19954;-83
2021/01/31 03:38:45;;;;;;;;;;;-3.20;99.90;;;;;;5131769;28;19911;-83
2021/01/31 03:41:15;;;;;;;;;;;-3.20;99.90;;;;;;5116709;28;19915;-84
2021/01/31 03:43:40;;;;;;;;;;;-3.20;99.90;;;;;;5116511;28;19929;-83
2021/01/31 03:46:24;;;;;;;;;;;-3.10;99.90;;;;;;5135612;28;19911;-84
2021/01/31 03:48:59;;;;;;;;;;;-3.20;99.90;;;;;;5135067;28;19937;-84
2021/01/31 03:51:25;;;;;;;;;;;-3.20;99.90;;;;;;5116844;28;19976;-83
2021/01/31 03:53:51;;;;;;;;;;;-3.20;99.90;;;;;;5117472;28;20343;-83
2021/01/31 03:56:21;;;;;;;;;;;-3.20;99.90;;;;;;5130763;28;19952;-84
2021/01/31 03:58:49;;;;;;;;;;;-3.20;99.90;;;;;;5117003;28;19930;-84
2021/01/31 04:01:16;;;;;;;;;;;-3.20;99.90;;;;;;5117135;28;19911;-84
2021/01/31 04:03:53;;;;;;;;;;;-3.20;99.90;;;;;;5131612;28;20376;-84
2021/01/31 04:06:22;;;;;;;;;;;-3.20;99.90;;;;;;5119573;27;19907;-83
2021/01/31 04:08:53;;;;;;;;;;;-3.20;99.90;;;;;;5119827;27;19919;-84
2021/01/31 04:11:28;;;;;;;;;;;-3.20;99.90;;;;;;5120109;27;20360;-83
2021/01/31 04:13:56;;;;;;;;;;;-3.30;99.90;;;;;;5138311;27;19957;-84
2021/01/31 04:16:28;;;;;;;;;;;-3.30;99.90;;;;;;5120160;27;19911;-84
2021/01/31 04:18:54;;;;;;;;;;;-3.30;99.90;;;;;;5120116;27;20368;-84
2021/01/31 04:21:19;;;;;;;;;;;-3.30;99.90;;;;;;5115375;27;19912;-84
2021/01/31 04:23:45;;;;;;;;;;;-3.40;99.90;;;;;;5115321;27;19911;-84
2021/01/31 04:26:13;;;;;;;;;;;-3.40;99.90;;;;;;5119949;27;20015;-83
2021/01/31 04:28:39;;;;;;;;;;;-3.30;99.90;;;;;;5119720;27;20364;-82
2021/01/31 04:31:07;;;;;;;;;;;-3.40;99.90;;;;;;5120202;27;19911;-84
2021/01/31 04:33:32;;;;;;;;;;;-3.30;99.90;;;;;;5119677;27;19939;-84
2021/01/31 04:35:58;;;;;;;;;;;-3.30;99.90;;;;;;5137958;27;19907;-84
2021/01/31 04:38:23;;;;;;;;;;;-3.40;99.90;;;;;;5119402;27;19911;-83
2021/01/31 04:40:49;;;;;;;;;;;-3.30;99.90;;;;;;5114831;27;19934;-83
2021/01/31 04:43:16;;;;;;;;;;;-3.30;99.90;;;;;;5137360;27;20052;-82
2021/01/31 04:45:45;;;;;;;;;;;-3.30;99.90;;;;;;5119138;27;19907;-83
2021/01/31 04:48:25;;;;;;;;;;;-3.30;99.90;;;;;;5115449;27;19907;-84
2021/01/31 04:50:54;;;;;;;;;;;-3.30;99.90;;;;;;5136988;27;19907;-84
2021/01/31 04:53:38;;;;;;;;;;;-3.20;99.90;;;;;;5136414;27;19924;-84
2021/01/31 04:56:20;;;;;;;;;;;-3.30;99.90;;;;;;5136383;27;19907;-84
2021/01/31 04:58:50;;;;;;;;;;;-3.30;99.90;;;;;;5119378;27;20371;-83
2021/01/31 05:01:29;;;;;;;;;;;-3.30;99.90;;;;;;5137588;27;20379;-83
2021/01/31 05:04:15;;;;;;;;;;;-3.30;99.90;;;;;;5114475;27;19991;-84
2021/01/31 05:06:45;;;;;;;;;;;-3.30;99.90;;;;;;5119562;27;20005;-84
2021/01/31 05:09:17;;;;;;;;;;;-3.20;99.90;;;;;;5118969;27;19935;-84
2021/01/31 05:11:48;;;;;;;;;;;-3.30;99.90;;;;;;5137667;27;20302;-83
2021/01/31 05:14:33;;;;;;;;;;;-3.20;99.90;;;;;;5119131;27;19912;-84
2021/01/31 05:17:07;;;;;;;;;;;-3.20;99.90;;;;;;5135130;27;19914;-84
2021/01/31 05:19:38;;;;;;;;;;;-3.30;99.90;;;;;;5119426;27;19952;-84
2021/01/31 05:22:22;;;;;;;;;;;-3.30;99.90;;;;;;5119027;27;20010;-83
2021/01/31 05:24:48;;;;;;;;;;;-3.30;99.90;;;;;;5118715;27;20010;-84
2021/01/31 05:27:17;;;;;;;;;;;-3.30;99.90;;;;;;5137368;27;20387;-84
2021/01/31 05:29:43;;;;;;;;;;;-3.30;99.90;;;;;;5137413;27;19907;-83
2021/01/31 05:32:10;;;;;;;;;;;-3.30;99.90;;;;;;5113795;27;20423;-83
2021/01/31 05:34:40;;;;;;;;;;;-3.30;99.90;;;;;;5118681;27;19915;-84
2021/01/31 05:37:10;;;;;;;;;;;-3.30;99.90;;;;;;5114520;27;19911;-84
2021/01/31 05:39:42;;;;;;;;;;;-3.30;99.90;;;;;;5113748;27;19914;-83
2021/01/31 05:42:11;;;;;;;;;;;-3.40;99.90;;;;;;5118366;27;19907;-84
2021/01/31 05:44:37;;;;;;;;;;;-3.50;99.90;;;;;;5118594;27;19912;-84
2021/01/31 05:47:17;;;;;;;;;;;-3.40;99.90;;;;;;5118010;27;20405;-84
2021/01/31 05:49:47;;;;;;;;;;;-3.40;99.90;;;;;;5117917;27;19907;-84
2021/01/31 05:52:41;;;;;;;;;;;-3.50;99.90;;;;;;5117755;27;20041;-84
2021/01/31 05:55:19;;;;;;;;;;;-3.50;99.90;;;;;;5136238;27;20397;-84
2021/01/31 05:57:44;;;;;;;;;;;-3.50;99.90;;;;;;5117741;27;19908;-84
2021/01/31 06:00:30;;;;;;;;;;;-3.60;99.90;;;;;;5131843;27;19931;-84
2021/01/31 06:03:06;;;;;;;;;;;-3.60;99.90;;;;;;5117227;27;19915;-85
2021/01/31 06:05:32;;;;;;;;;;;-3.60;99.90;;;;;;5118041;27;19914;-84
2021/01/31 06:08:03;;;;;;;;;;;-3.70;99.90;;;;;;5118216;27;19907;-85
2021/01/31 06:10:29;;;;;;;;;;;-3.70;99.90;;;;;;5117728;27;19945;-83
2021/01/31 06:13:02;;;;;;;;;;;-3.70;99.90;;;;;;5130718;27;19934;-84
2021/01/31 06:15:37;;;;;;;;;;;-3.70;99.90;;;;;;5117691;27;19950;-84
2021/01/31 06:18:06;;;;;;;;;;;-3.70;99.90;;;;;;5135895;27;19914;-84
2021/01/31 06:20:47;;;;;;;;;;;-3.80;99.90;;;;;;5136464;27;19908;-84
2021/01/31 06:23:39;;;;;;;;;;;-3.80;99.90;;;;;;5117771;27;19915;-85
2021/01/31 06:26:05;;;;;;;;;;;-3.80;99.90;;;;;;5112708;27;19912;-85
2021/01/31 06:28:38;;;;;;;;;;;-3.70;99.90;;;;;;5116995;28;20253;-84
2021/01/31 06:31:11;;;;;;;;;;;-3.80;99.90;;;;;;5118181;27;19908;-84
2021/01/31 06:33:39;;;;;;;;;;;-3.80;99.90;;;;;;5117281;27;19915;-84
2021/01/31 06:36:04;;;;;;;;;;;-3.80;99.90;;;;;;5117384;27;19907;-84
2021/01/31 06:38:59;;;;;;;;;;;-3.80;99.90;;;;;;5133987;27;19934;-84
2021/01/31 06:41:27;;;;;;;;;;;-3.80;99.90;;;;;;5028516;27;20020;-84
2021/01/31 06:44:13;;;;;;;;;;;-3.80;99.90;;;;;;5136027;27;19915;-84
2021/01/31 06:47:04;;;;;;;;;;;-3.80;99.90;;;;;;5118071;27;20344;-84
2021/01/31 06:49:40;;;;;;;;;;;-3.80;99.90;;;;;;5136018;27;19957;-85
2021/01/31 06:52:06;;;;;;;;;;;-3.80;99.90;;;;;;5135722;27;19968;-85
2021/01/31 06:54:43;;;;;;;;;;;-3.90;99.90;;;;;;5134049;27;19912;-85
2021/01/31 06:57:08;;;;;;;;;;;-3.80;99.90;;;;;;5117745;27;19914;-84
2021/01/31 06:59:37;;;;;;;;;;;-3.90;99.90;;;;;;5134526;27;19907;-84
2021/01/31 07:02:24;;;;;;;;;;;-3.90;99.90;;;;;;5134332;28;20386;-85
2021/01/31 07:05:01;;;;;;;;;;;-3.90;99.90;;;;;;5134213;28;20384;-84
2021/01/31 07:07:46;;;;;;;;;;;-3.90;99.90;;;;;;5135619;28;20305;-85
2021/01/31 07:10:17;;;;;;;;;;;-3.90;99.90;;;;;;5134321;27;19924;-85
2021/01/31 07:12:46;;;;;;;;;;;-3.90;99.90;;;;;;5117623;28;19965;-85
2021/01/31 07:15:16;;;;;;;;;;;-4.00;99.90;;;;;;5134654;28;19911;-85
2021/01/31 07:17:43;;;;;;;;;;;-3.90;99.90;;;;;;5135220;28;19959;-85
2021/01/31 07:20:21;;;;;;;;;;;-4.00;99.90;;;;;;5138013;28;19908;-84
2021/01/31 07:22:50;;;;;;;;;;;-3.90;99.90;;;;;;5124497;28;19957;-84
2021/01/31 07:25:24;;;;;;;;;;;-3.90;99.90;;;;;;5122861;28;20316;-85
2021/01/31 07:27:55;;;;;;;;;;;-3.90;99.90;;;;;;5121525;28;19911;-86
2021/01/31 07:30:24;;;;;;;;;;;-3.90;99.90;;;;;;5136004;28;19907;-85
2021/01/31 07:32:59;;;;;;;;;;;-3.90;99.90;;;;;;5134174;28;19926;-86
2021/01/31 07:35:28;;;;;;;;;;;-3.90;99.90;;;;;;5136555;28;19907;-86
2021/01/31 07:38:15;;;;;;;;;;;-3.90;99.90;;;;;;5136603;28;20448;-85
2021/01/31 07:40:42;;;;;;;;;;;-3.90;99.90;;;;;;5118868;27;20386;-85
2021/01/31 07:43:16;;;;;;;;;;;-3.80;99.90;;;;;;5121892;27;20371;-84
2021/01/31 07:45:46;;;;;;;;;;;-3.90;99.90;;;;;;5134852;27;19907;-85
2021/01/31 07:48:48;;;;;;;;;;;-3.80;99.90;;;;;;5120911;27;19907;-85
2021/01/31 07:51:40;;;;;;;;;;;-3.80;99.90;;;;;;5090371;27;20362;-84
2021/01/31 07:54:27;;;;;;;;;;;-3.70;99.90;;;;;;5161278;27;20005;-85
2021/01/31 07:56:56;;;;;;;;;;;-3.70;99.90;;;;;;5161546;27;19975;-85
2021/01/31 07:59:24;;;;;;;;;;;-3.60;99.90;;;;;;5161073;27;20359;-85
2021/01/31 08:01:52;;;;;;;;;;;-3.60;99.90;;;;;;5155259;27;19914;-85
2021/01/31 08:04:23;;;;;;;;;;;-3.60;99.90;;;;;;5129955;27;20307;-84
2021/01/31 08:06:51;;;;;;;;;;;-3.50;99.90;;;;;;5145566;27;19911;-85
2021/01/31 08:09:29;;;;;;;;;;;-3.50;99.90;;;;;;5130279;27;19919;-85
2021/01/31 08:11:58;;;;;;;;;;;-3.40;99.90;;;;;;5130926;27;19926;-85
2021/01/31 08:14:42;;;;;;;;;;;-3.30;99.90;;;;;;5143561;27;19911;-85
2021/01/31 08:17:07;;;;;;;;;;;-3.20;99.90;;;;;;5147780;27;19912;-84
2021/01/31 08:19:33;;;;;;;;;;;-3.10;99.90;;;;;;5121561;27;19964;-85
2021/01/31 08:22:04;;;;;;;;;;;-3.10;99.90;;;;;;5174209;27;19926;-84
2021/01/31 08:24:54;;;;;;;;;;;-3.00;99.90;;;;;;5154436;27;19926;-85
2021/01/31 08:27:47;;;;;;;;;;;-2.90;99.90;;;;;;5136354;27;20431;-85
2021/01/31 08:30:20;;;;;;;;;;;-2.80;99.90;;;;;;5128359;27;19965;-85
2021/01/31 08:33:01;;;;;;;;;;;-2.60;99.90;;;;;;5141307;27;19950;-86
2021/01/31 08:35:32;;;;;;;;;;;-2.50;99.90;;;;;;5158465;27;19908;-85
2021/01/31 08:38:18;;;;;;;;;;;-2.40;99.90;;;;;;5114420;28;19923;-85
2021/01/31 08:41:05;;;;;;;;;;;-1.90;99.90;;;;;;5098297;28;19991;-84
2021/01/31 08:43:44;;;;;;;;;;;-1.30;99.90;;;;;;5115411;28;20391;-85
2021/01/31 08:46:28;;;;;;;;;;;-0.60;99.90;;;;;;5098090;28;19915;-85
2021/01/31 08:49:01;;;;;;;;;;;0.20;99.90;;;;;;5097900;28;20006;-85
2021/01/31 08:51:33;;;;;;;;;;;0.70;99.90;;;;;;5097560;28;20407;-83
2021/01/31 08:54:08;;;;;;;;;;;1.10;99.90;;;;;;5097815;28;20311;-83
2021/01/31 08:56:45;;;;;;;;;;;1.40;99.90;;;;;;5097453;28;19908;-85
2021/01/31 08:59:33;;;;;;;;;;;1.50;99.90;;;;;;5097281;28;20371;-85
2021/01/31 09:02:19;;;;;;;;;;;1.40;99.90;;;;;;5115118;28;19908;-85
2021/01/31 09:04:47;;;;;;;;;;;1.40;99.90;;;;;;5097427;28;19912;-84
2021/01/31 09:07:21;;;;;;;;;;;1.40;99.90;;;;;;5097009;28;19908;-84
2021/01/31 09:09:56;;;;;;;;;;;1.90;99.90;;;;;;5135774;27;20339;-84
2021/01/31 09:12:25;;;;;;;;;;;2.50;99.90;;;;;;5140587;27;19911;-84
2021/01/31 09:14:53;;;;;;;;;;;2.90;99.90;;;;;;5133389;27;19930;-83
2021/01/31 09:17:27;;;;;;;;;;;3.00;99.90;;;;;;5118739;27;19951;-84
2021/01/31 09:20:07;;;;;;;;;;;3.10;99.90;;;;;;5137280;27;19933;-85
2021/01/31 09:22:48;;;;;;;;;;;2.90;99.90;;;;;;5119856;27;19912;-85
2021/01/31 09:25:22;;;;;;;;;;;2.60;99.90;;;;;;5118280;27;20428;-84
2021/01/31 09:28:03;;;;;;;;;;;2.60;99.90;;;;;;5136410;27;19908;-85
2021/01/31 09:30:31;;;;;;;;;;;3.40;99.90;;;;;;5136863;27;20264;-84
2021/01/31 09:33:01;;;;;;;;;;;4.10;95.80;;;;;;5118380;27;19916;-84
2021/01/31 09:35:32;;;;;;;;;;;3.90;92.20;;;;;;5118484;27;19922;-84
2021/01/31 09:38:15;;;;;;;;;;;3.40;92.80;;;;;;5127805;27;19934;-83
2021/01/31 09:40:44;;;;;;;;;;;3.50;93.40;;;;;;5153263;27;19911;-84
2021/01/31 09:43:22;;;;;;;;;;;3.70;93.10;;;;;;5138135;27;19954;-84
2021/01/31 09:45:54;;;;;;;;;;;4.10;92.10;;;;;;5123455;27;20006;-84
2021/01/31 09:48:27;;;;;;;;;;;4.50;90.60;;;;;;5066978;28;19916;-84
2021/01/31 09:50:58;;;;;;;;;;;4.90;86.70;;;;;;5089727;28;19908;-84
2021/01/31 09:53:37;;;;;;;;;;;5.30;85.20;;;;;;5093052;28;20015;-85
2021/01/31 09:56:09;;;;;;;;;;;5.30;83.20;;;;;;5071196;28;20430;-83
2021/01/31 09:58:47;;;;;;;;;;;4.80;82.90;;;;;;5075714;28;19908;-85
2021/01/31 10:01:21;;;;;;;;;;;4.30;84.90;;;;;;5076104;28;19916;-84
2021/01/31 10:04:09;;;;;;;;;;;3.70;87.10;;;;;;5075892;28;19908;-85
2021/01/31 10:07:04;;;;;;;;;;;3.30;89.20;;;;;;5076950;28;19908;-85
2021/01/31 10:09:34;;;;;;;;;;;2.90;90.80;;;;;;5079978;28;19963;-84
2021/01/31 10:12:18;;;;;;;;;;;2.70;91.90;;;;;;5076508;28;19931;-83
2021/01/31 10:14:48;;;;;;;;;;;2.90;92.90;;;;;;5075597;28;19927;-84
2021/01/31 10:17:31;;;;;;;;;;;3.40;92.30;;;;;;5075404;28;19915;-84
2021/01/31 10:20:15;;;;;;;;;;;3.70;89.30;;;;;;5136241;27;19929;-84
2021/01/31 10:22:47;;;;;;;;;;;4.00;90.40;;;;;;5158779;27;19907;-85
2021/01/31 10:25:21;;;;;;;;;;;4.30;86.00;;;;;;5158947;27;19968;-84
2021/01/31 10:27:50;;;;;;;;;;;4.20;84.90;;;;;;5177057;27;20377;-84
2021/01/31 10:30:24;;;;;;;;;;;4.00;84.80;;;;;;5158493;27;20379;-84
2021/01/31 10:32:50;;;;;;;;;;;4.10;85.10;;;;;;5158205;27;20278;-84
2021/01/31 10:35:32;;;;;;;;;;;4.30;85.30;;;;;;5158728;27;19953;-84
2021/01/31 10:37:59;;;;;;;;;;;4.50;83.00;;;;;;5158519;27;19949;-85
2021/01/31 10:40:35;;;;;;;;;;;4.70;82.60;;;;;;5176778;27;19906;-85
2021/01/31 10:43:08;;;;;;;;;;;5.10;82.30;;;;;;5152962;27;20332;-86
2021/01/31 10:45:39;;;;;;;;;;;5.70;80.10;;;;;;5152578;27;19957;-85
2021/01/31 10:48:05;;;;;;;;;;;6.10;76.10;;;;;;5158345;27;19957;-84
2021/01/31 10:50:31;;;;;;;;;;;6.30;74.80;;;;;;5158524;27;20271;-84
2021/01/31 10:53:01;;;;;;;;;;;6.40;76.30;;;;;;5176897;27;19946;-84
2021/01/31 10:55:35;;;;;;;;;;;6.40;74.80;;;;;;5158032;27;19917;-85
2021/01/31 10:58:06;;;;;;;;;;;6.30;74.10;;;;;;5158213;27;19954;-84
2021/01/31 11:00:32;;;;;;;;;;;6.20;74.40;;;;;;5177254;27;19907;-83
2021/01/31 11:03:00;;;;;;;;;;;6.30;74.80;;;;;;5169507;27;19967;-84
2021/01/31 11:05:33;;;;;;;;;;;6.60;75.30;;;;;;5153390;27;19907;-85
2021/01/31 11:08:01;;;;;;;;;;;7.00;73.80;;;;;;5153184;27;19907;-84
2021/01/31 11:10:30;;;;;;;;;;;7.30;71.50;;;;;;5157642;27;19929;-84
2021/01/31 11:12:55;;;;;;;;;;;7.40;70.10;;;;;;5157929;27;19953;-84
2021/01/31 11:15:24;;;;;;;;;;;7.40;69.30;;;;;;5159457;27;19946;-85
2021/01/31 11:17:49;;;;;;;;;;;7.40;68.90;;;;;;5162133;27;20348;-83
2021/01/31 11:20:17;;;;;;;;;;;7.50;68.90;;;;;;5162339;27;19906;-83
2021/01/31 11:22:43;;;;;;;;;;;7.50;68.80;;;;;;5180902;27;20259;-84
2021/01/31 11:25:10;;;;;;;;;;;7.60;69.00;;;;;;5162533;27;19907;-83
2021/01/31 11:27:38;;;;;;;;;;;7.70;69.20;;;;;;5159775;27;19915;-84
2021/01/31 11:30:06;;;;;;;;;;;7.90;68.00;;;;;;5162064;27;19914;-84
2021/01/31 11:32:33;;;;;;;;;;;8.10;66.70;;;;;;5162540;27;19960;-84
2021/01/31 11:35:01;;;;;;;;;;;8.20;64.80;;;;;;5156615;27;19933;-85
2021/01/31 11:37:32;;;;;;;;;;;8.50;66.40;;;;;;5161999;27;20387;-85
2021/01/31 11:40:03;;;;;;;;;;;9.00;65.00;;;;;;5180797;27;19910;-85
2021/01/31 11:42:28;;;;;;;;;;;9.60;62.20;;;;;;5158246;27;19910;-85
2021/01/31 11:44:54;;;;;;;;;;;10.10;60.00;;;;;;5180173;27;19907;-83
2021/01/31 11:47:20;;;;;;;;;;;10.20;59.90;;;;;;5099123;28;19923;-85
2021/01/31 11:49:49;;;;;;;;;;;10.60;59.10;;;;;;5126121;28;19933;-84
2021/01/31 11:52:17;;;;;;;;;;;10.80;58.80;;;;;;5098749;28;19915;-85
2021/01/31 11:54:47;;;;;;;;;;;11.10;57.90;;;;;;5098510;28;19914;-85
2021/01/31 11:57:12;;;;;;;;;;;11.60;56.60;;;;;;5096769;28;19912;-85
2021/01/31 11:59:43;;;;;;;;;;;12.00;56.10;;;;;;5098758;28;19915;-85
2021/01/31 12:02:12;;;;;;;;;;;12.40;54.70;;;;;;5098654;28;19908;-85
2021/01/31 12:04:39;;;;;;;;;;;12.70;52.60;;;;;;5098286;28;19908;-85
2021/01/31 12:07:05;;;;;;;;;;;12.90;52.70;;;;;;5098755;28;20392;-84
2021/01/31 12:09:36;;;;;;;;;;;13.10;52.80;;;;;;5095956;28;19923;-86
2021/01/31 12:12:04;;;;;;;;;;;13.20;51.10;;;;;;5095708;28;19912;-86
2021/01/31 12:14:41;;;;;;;;;;;13.10;51.10;;;;;;5116255;28;19912;-85
2021/01/31 12:17:09;;;;;;;;;;;13.00;51.70;;;;;;5115474;27;20470;-85
2021/01/31 12:19:38;;;;;;;;;;;13.20;51.60;;;;;;5156678;27;19956;-85
2021/01/31 12:22:12;;;;;;;;;;;13.40;51.70;;;;;;5161642;27;20006;-86
2021/01/31 12:24:46;;;;;;;;;;;13.50;50.40;;;;;;5176567;27;19952;-85
2021/01/31 12:27:12;;;;;;;;;;;13.80;50.80;;;;;;5159418;27;19911;-85
2021/01/31 12:29:42;;;;;;;;;;;13.70;49.30;;;;;;5160707;27;19911;-85
2021/01/31 12:32:08;;;;;;;;;;;13.40;49.70;;;;;;5135519;27;20383;-84
2021/01/31 12:34:49;;;;;;;;;;;12.90;50.50;;;;;;5074768;28;19917;-85
2021/01/31 12:37:17;;;;;;;;;;;12.90;51.00;;;;;;5075156;28;19978;-85
2021/01/31 12:39:50;;;;;;;;;;;13.00;50.60;;;;;;5057397;28;19912;-86
2021/01/31 12:42:15;;;;;;;;;;;13.10;50.40;;;;;;5074426;28;19920;-85
2021/01/31 12:44:44;;;;;;;;;;;13.20;49.20;;;;;;5050637;28;19909;-84
2021/01/31 12:47:12;;;;;;;;;;;13.20;50.60;;;;;;5053083;28;19920;-86
2021/01/31 12:49:40;;;;;;;;;;;13.30;50.60;;;;;;5058148;28;19956;-85
2021/01/31 12:52:06;;;;;;;;;;;13.50;50.70;;;;;;5056755;28;19917;-85
2021/01/31 12:54:39;;;;;;;;;;;13.90;50.10;;;;;;5056948;28;19913;-85
2021/01/31 12:57:11;;;;;;;;;;;14.30;50.30;;;;;;5074182;28;19915;-84
2021/01/31 12:59:39;;;;;;;;;;;14.30;47.30;;;;;;5051119;28;20285;-85
2021/01/31 13:02:27;;;;;;;;;;;13.50;48.10;;;;;;5081342;28;20283;-85
2021/01/31 13:04:55;;;;;;;;;;;12.20;49.80;;;;;;5129592;27;19906;-86
2021/01/31 13:07:30;;;;;;;;;;;11.00;52.10;;;;;;5159969;27;19917;-85
2021/01/31 13:09:59;;;;;;;;;;;9.90;54.40;;;;;;5178999;27;19962;-85
2021/01/31 13:12:28;;;;;;;;;;;9.10;56.60;;;;;;5158452;27;20295;-84
2021/01/31 13:14:56;;;;;;;;;;;8.40;57.90;;;;;;5179220;27;19915;-82
2021/01/31 13:17:24;;;;;;;;;;;7.90;59.50;;;;;;5178851;27;19914;-85
2021/01/31 13:19:51;;;;;;;;;;;7.30;60.70;;;;;;5173306;27;19914;-84
2021/01/31 13:22:25;;;;;;;;;;;6.80;61.70;;;;;;5154556;27;19907;-85
2021/01/31 13:24:51;;;;;;;;;;;6.30;63.20;;;;;;5161050;27;19907;-85
2021/01/31 13:27:20;;;;;;;;;;;5.90;64.50;;;;;;5161088;27;19911;-85
2021/01/31 13:29:48;;;;;;;;;;;5.60;65.60;;;;;;5166866;27;19910;-86
2021/01/31 13:32:24;;;;;;;;;;;5.30;66.60;;;;;;5137915;27;20041;-86
2021/01/31 13:34:49;;;;;;;;;;;5.10;68.20;;;;;;5094936;28;19908;-85
2021/01/31 13:37:27;;;;;;;;;;;5.20;68.00;;;;;;5076879;28;19922;-85
2021/01/31 13:40:06;;;;;;;;;;;5.30;68.40;;;;;;5093314;28;20008;-86
2021/01/31 13:42:32;;;;;;;;;;;5.20;68.10;;;;;;5073942;28;19909;-86
2021/01/31 13:44:58;;;;;;;;;;;5.00;68.50;;;;;;5078048;28;19908;-86
2021/01/31 13:47:27;;;;;;;;;;;4.80;68.80;;;;;;5060465;28;19920;-86
2021/01/31 13:50:02;;;;;;;;;;;4.70;69.20;;;;;;5076867;28;19908;-85
2021/01/31 13:52:43;;;;;;;;;;;4.60;69.60;;;;;;5093450;28;19947;-85
2021/01/31 13:55:15;;;;;;;;;;;4.40;70.20;;;;;;5076414;28;19949;-84
2021/01/31 13:57:43;;;;;;;;;;;4.50;71.00;;;;;;5078262;28;19916;-85
2021/01/31 14:00:19;;;;;;;;;;;4.50;70.90;;;;;;5130762;27;19908;-85
2021/01/31 14:02:52;;;;;;;;;;;4.50;71.30;;;;;;5157324;27;19907;-85
2021/01/31 14:05:22;;;;;;;;;;;4.50;71.40;;;;;;5170490;27;19906;-86
2021/01/31 14:07:58;;;;;;;;;;;4.50;71.80;;;;;;5166634;27;20005;-85
2021/01/31 14:10:23;;;;;;;;;;;4.50;72.20;;;;;;5160454;27;20002;-85
2021/01/31 14:12:49;;;;;;;;;;;4.60;72.30;;;;;;5164536;27;19923;-85
2021/01/31 14:15:17;;;;;;;;;;;4.80;72.10;;;;;;5160671;27;20275;-85
2021/01/31 14:17:46;;;;;;;;;;;4.90;72.30;;;;;;5178096;27;19914;-85
2021/01/31 14:20:14;;;;;;;;;;;5.00;72.30;;;;;;5177429;27;19913;-85
2021/01/31 14:22:48;;;;;;;;;;;5.20;71.90;;;;;;5093256;28;19961;-85
2021/01/31 14:25:18;;;;;;;;;;;5.20;71.50;;;;;;5093080;28;19915;-85
2021/01/31 14:27:44;;;;;;;;;;;4.80;71.70;;;;;;5071772;28;19956;-84
2021/01/31 14:30:25;;;;;;;;;;;4.30;72.80;;;;;;5068701;28;19955;-83
2021/01/31 14:32:54;;;;;;;;;;;3.90;74.20;;;;;;5092272;28;19920;-84
2021/01/31 14:38:19;;;;;;;;;;;3.40;76.50;;;;;;5092507;28;19915;-84
2021/01/31 14:40:49;;;;;;;;;;;3.20;77.60;;;;;;5110083;28;20011;-85
2021/01/31 14:43:18;;;;;;;;;;;3.20;78.30;;;;;;5110004;28;20358;-85
2021/01/31 14:45:45;;;;;;;;;;;3.10;78.90;;;;;;5096168;28;19908;-85
2021/01/31 14:48:11;;;;;;;;;;;2.90;79.80;;;;;;5096148;28;19918;-85
2021/01/31 14:50:36;;;;;;;;;;;2.90;81.10;;;;;;5094934;28;19908;-84
2021/01/31 14:53:10;;;;;;;;;;;2.90;82.00;;;;;;5095584;28;19912;-84